Time;durP1;ratioP1;P1;durP2;ratioP2;P2;SDS_P1;SDS_P2;PMS_P1;PMS_P2;Temp;Humidity;BMP_temperature;BMP_pressure;BME280_temperature;BME280_humidity;BME280_pressure;Samples;Min_cycle;Max_cycle;Signal;HPM_P1;HPM_P2
2021/12/22 00:21:05;;;;;;;4.97;4.47;;;;;;;;;;4495188;27;20098;-70
2021/12/22 00:23:31;;;;;;;5.32;4.22;;;;;;;;;;4340929;33;20422;-70
2021/12/22 00:25:57;;;;;;;5.12;4.18;;;;;;;;;;4332056;33;20094;-70
2021/12/22 00:28:23;;;;;;;4.53;4.12;;;;;;;;;;4334469;33;20115;-70
2021/12/22 00:30:51;;;;;;;5.03;4.53;;;;;;;;;;4320996;33;20102;-70
2021/12/22 00:33:18;;;;;;;5.03;4.32;;;;;;;;;;4319580;33;20127;-70
2021/12/22 00:35:45;;;;;;;4.62;4.20;;;;;;;;;;4318102;33;20131;-69
2021/12/22 00:38:19;;;;;;;4.60;4.18;;;;;;;;;;4320498;33;20537;-70
2021/12/22 00:40:46;;;;;;;4.32;3.92;;;;;;;;;;4320500;33;20094;-73
2021/12/22 00:43:13;;;;;;;5.15;4.50;;;;;;;;;;4308702;33;20217;-72
2021/12/22 00:45:39;;;;;;;5.00;4.03;;;;;;;;;;4320355;33;20529;-73
2021/12/22 00:48:07;;;;;;;4.72;4.25;;;;;;;;;;4296331;33;20171;-73
2021/12/22 00:50:34;;;;;;;4.80;4.30;;;;;;;;;;4320441;33;20147;-73
2021/12/22 00:53:01;;;;;;;4.62;4.03;;;;;;;;;;4308393;33;20407;-70
2021/12/22 00:55:27;;;;;;;5.03;4.45;;;;;;;;;;4306073;33;20095;-71
2021/12/22 00:57:53;;;;;;;4.93;4.00;;;;;;;;;;4318187;33;20107;-71
2021/12/22 01:00:23;;;;;;;6.43;4.72;;;;;;;;;;4319324;33;20159;-71
2021/12/22 01:02:49;;;;;;;5.82;4.32;;;;;;;;;;4318187;33;20087;-71
2021/12/22 01:05:16;;;;;;;5.03;4.28;;;;;;;;;;4319564;33;20103;-71
2021/12/22 01:07:43;;;;;;;4.80;4.30;;;;;;;;;;4319276;33;20139;-71
2021/12/22 01:10:10;;;;;;;5.12;4.22;;;;;;;;;;4319026;33;20184;-71
2021/12/22 01:12:37;;;;;;;4.85;3.97;;;;;;;;;;4318028;33;20734;-71
2021/12/22 01:15:04;;;;;;;5.00;4.32;;;;;;;;;;4317686;33;20115;-71
2021/12/22 01:17:37;;;;;;;6.15;4.75;;;;;;;;;;4317995;33;20092;-71
2021/12/22 01:20:11;;;;;;;5.55;4.72;;;;;;;;;;4317324;33;20130;-71
2021/12/22 01:22:48;;;;;;;4.25;3.85;;;;;;;;;;4320443;33;20560;-71
2021/12/22 01:25:16;;;;;;;5.05;4.20;;;;;;;;;;4321160;33;20126;-71
2021/12/22 01:27:43;;;;;;;5.05;4.30;;;;;;;;;;4308371;33;20130;-71
2021/12/22 01:30:21;;;;;;;5.68;4.85;;;;;;;;;;4320278;33;20122;-71
2021/12/22 01:32:49;;;;;;;5.47;4.30;;;;;;;;;;4320616;33;20257;-71
2021/12/22 01:35:18;;;;;;;5.05;4.37;;;;;;;;;;4320223;33;20103;-71
2021/12/22 01:37:44;;;;;;;5.70;4.53;;;;;;;;;;4320255;33;20154;-71
2021/12/22 01:40:11;;;;;;;5.87;4.68;;;;;;;;;;4320067;33;20102;-71
2021/12/22 01:42:38;;;;;;;5.53;4.72;;;;;;;;;;4320315;33;20107;-71
2021/12/22 01:45:25;;;;;;;6.00;5.40;;;;;;;;;;4333845;33;20107;-72
2021/12/22 01:50:37;;;;;;;6.07;4.95;;;;;;;;;;4322124;33;20180;-71
2021/12/22 01:53:29;;;;;;;5.68;4.82;;;;;;;;;;4333448;33;20524;-72
2021/12/22 01:56:06;;;;;;;6.93;4.90;;;;;;;;;;4333252;33;20556;-71
2021/12/22 01:58:38;;;;;;;7.72;6.55;;;;;;;;;;4307705;33;20197;-71
2021/12/22 02:01:05;;;;;;;10.23;7.72;;;;;;;;;;4320031;33;20148;-71
2021/12/22 02:03:32;;;;;;;7.97;6.32;;;;;;;;;;4319916;33;20090;-72
2021/12/22 02:05:58;;;;;;;7.78;6.70;;;;;;;;;;4333463;33;20114;-72
2021/12/22 02:08:24;;;;;;;7.55;5.90;;;;;;;;;;4319892;33;20091;-72
2021/12/22 02:10:50;;;;;;;6.82;5.93;;;;;;;;;;4307353;33;20508;-72
2021/12/22 02:13:23;;;;;;;8.02;6.12;;;;;;;;;;4319942;33;20099;-72
2021/12/22 02:15:49;;;;;;;6.40;5.30;;;;;;;;;;4333357;33;20125;-71
2021/12/22 02:18:20;;;;;;;5.32;4.07;;;;;;;;;;4333312;33;20099;-71
2021/12/22 02:20:48;;;;;;;6.85;4.97;;;;;;;;;;4320125;33;20607;-71
2021/12/22 02:23:15;;;;;;;6.45;5.32;;;;;;;;;;4307652;33;20419;-72
2021/12/22 02:25:46;;;;;;;7.20;5.43;;;;;;;;;;4307393;33;20114;-72
2021/12/22 02:28:19;;;;;;;6.37;4.95;;;;;;;;;;4333159;33;20106;-72
2021/12/22 02:30:45;;;;;;;6.43;5.50;;;;;;;;;;4333168;33;20178;-72
2021/12/22 02:36:40;;;;;;;5.53;4.78;;;;;;;;;;4321896;33;20107;-72
2021/12/22 02:38:51;;;;;;;5.65;4.95;;;;;;;;;;4316206;33;20196;-72
2021/12/22 02:41:18;;;;;;;5.75;4.55;;;;;;;;;;4319068;33;20204;-71
2021/12/22 02:43:48;;;;;;;5.72;4.57;;;;;;;;;;4307621;33;20111;-71
2021/12/22 02:46:16;;;;;;;4.90;4.40;;;;;;;;;;4319836;33;20102;-72
2021/12/22 02:48:42;;;;;;;5.65;4.60;;;;;;;;;;4283234;33;20087;-72
2021/12/22 02:51:08;;;;;;;5.75;4.65;;;;;;;;;;4319404;33;20091;-72
2021/12/22 02:53:49;;;;;;;5.45;4.45;;;;;;;;;;4319277;33;20569;-72
2021/12/22 02:59:00;;;;;;;7.60;4.70;;;;;;;;;;4320043;33;20114;-72
2021/12/22 03:04:07;;;;;;;5.45;4.55;;;;;;;;;;4319829;33;20095;-72
2021/12/22 03:09:00;;;;;;;7.40;4.60;;;;;;;;;;4332854;33;20118;-72
2021/12/22 03:11:27;;;;;;;5.32;4.32;;;;;;;;;;4307260;33;20093;-71
2021/12/22 03:13:53;;;;;;;5.62;4.82;;;;;;;;;;4319185;33;20130;-71
2021/12/22 03:16:19;;;;;;;6.30;5.12;;;;;;;;;;4319150;33;20111;-70
2021/12/22 03:18:46;;;;;;;6.95;5.07;;;;;;;;;;4319110;33;20204;-71
2021/12/22 03:21:20;;;;;;;6.20;5.15;;;;;;;;;;4319112;33;20094;-70
2021/12/22 03:23:48;;;;;;;5.45;4.70;;;;;;;;;;4332614;33;20509;-70
2021/12/22 03:26:16;;;;;;;6.03;5.12;;;;;;;;;;4318933;33;20118;-66
2021/12/22 03:28:43;;;;;;;6.37;5.28;;;;;;;;;;4319080;33;20110;-67
2021/12/22 03:31:09;;;;;;;6.05;4.72;;;;;;;;;;4319325;33;20195;-71
2021/12/22 03:33:35;;;;;;;6.03;4.72;;;;;;;;;;4319079;33;20099;-71
2021/12/22 03:36:01;;;;;;;6.12;5.03;;;;;;;;;;4332540;33;20122;-71
2021/12/22 03:38:29;;;;;;;5.03;4.53;;;;;;;;;;4332558;33;20083;-68
2021/12/22 03:40:56;;;;;;;5.35;4.40;;;;;;;;;;4332556;33;20123;-67
2021/12/22 03:43:22;;;;;;;7.90;4.90;;;;;;;;;;4318773;33;20090;-68
2021/12/22 03:45:48;;;;;;;6.50;4.62;;;;;;;;;;4332478;33;20099;-66
2021/12/22 03:48:17;;;;;;;5.87;4.55;;;;;;;;;;4332296;33;20110;-64
2021/12/22 03:50:43;;;;;;;10.07;4.78;;;;;;;;;;4332135;33;20129;-63
2021/12/22 03:53:09;;;;;;;6.22;4.80;;;;;;;;;;4319186;33;20111;-65
2021/12/22 03:55:35;;;;;;;5.28;4.78;;;;;;;;;;4333056;33;20118;-66
2021/12/22 03:58:02;;;;;;;6.75;5.35;;;;;;;;;;4333511;33;20530;-67
2021/12/22 04:00:29;;;;;;;7.25;5.62;;;;;;;;;;4308490;33;20544;-74
2021/12/22 04:02:56;;;;;;;7.28;5.82;;;;;;;;;;4321315;33;20113;-70
2021/12/22 04:05:22;;;;;;;5.25;4.75;;;;;;;;;;4321051;33;20466;-68
2021/12/22 04:07:49;;;;;;;6.62;5.35;;;;;;;;;;4334507;33;20545;-67
2021/12/22 04:10:19;;;;;;;6.87;5.15;;;;;;;;;;4308966;33;20111;-67
2021/12/22 04:12:51;;;;;;;6.32;5.65;;;;;;;;;;4321567;33;20495;-68
2021/12/22 04:15:17;;;;;;;5.30;4.80;;;;;;;;;;4334480;33;20153;-68
2021/12/22 04:17:43;;;;;;;7.95;5.10;;;;;;;;;;4320794;33;20185;-68
2021/12/22 04:20:10;;;;;;;6.00;5.07;;;;;;;;;;4334388;33;20087;-68
2021/12/22 04:22:37;;;;;;;6.32;5.00;;;;;;;;;;4334237;33;20090;-68
2021/12/22 04:25:05;;;;;;;6.32;4.90;;;;;;;;;;4334197;33;20117;-67
2021/12/22 04:27:31;;;;;;;6.35;5.03;;;;;;;;;;4320649;33;20107;-68
2021/12/22 04:29:57;;;;;;;5.50;4.32;;;;;;;;;;4320915;33;20118;-67
2021/12/22 04:32:23;;;;;;;7.12;5.30;;;;;;;;;;4320559;33;20277;-68
2021/12/22 04:34:49;;;;;;;5.78;4.65;;;;;;;;;;4320627;33;20130;-68
2021/12/22 04:37:15;;;;;;;5.68;4.78;;;;;;;;;;4334153;33;20514;-67
2021/12/22 04:39:41;;;;;;;5.25;4.75;;;;;;;;;;4308689;33;20174;-67
2021/12/22 04:42:08;;;;;;;6.82;4.43;;;;;;;;;;4334149;33;20123;-67
2021/12/22 04:44:34;;;;;;;5.28;4.72;;;;;;;;;;4334230;33;20091;-68
2021/12/22 04:47:00;;;;;;;4.95;4.28;;;;;;;;;;4308727;33;20506;-68
2021/12/22 04:49:26;;;;;;;4.87;4.28;;;;;;;;;;4320645;33;20091;-67
2021/12/22 04:51:55;;;;;;;5.30;4.72;;;;;;;;;;4333988;33;20114;-67
2021/12/22 04:56:54;;;;;;;6.80;4.82;;;;;;;;;;4308296;33;20163;-68
2021/12/22 04:59:20;;;;;;;5.53;4.53;;;;;;;;;;4308595;33;20126;-67
2021/12/22 05:01:46;;;;;;;6.47;5.10;;;;;;;;;;4334156;33;20129;-66
2021/12/22 05:04:12;;;;;;;6.12;4.97;;;;;;;;;;4334329;33;20521;-64
2021/12/22 05:06:38;;;;;;;6.82;4.65;;;;;;;;;;4334019;33;20143;-64
2021/12/22 05:09:05;;;;;;;6.87;5.10;;;;;;;;;;4333880;33;20197;-65
2021/12/22 05:11:31;;;;;;;6.30;4.97;;;;;;;;;;4333842;33;20470;-66
2021/12/22 05:13:58;;;;;;;5.00;4.35;;;;;;;;;;4333842;33;20106;-67
2021/12/22 05:16:25;;;;;;;5.85;4.72;;;;;;;;;;4333090;33;20114;-65
2021/12/22 05:19:12;;;;;;;6.43;4.70;;;;;;;;;;4333672;33;20106;-66
2021/12/22 05:21:38;;;;;;;5.72;4.80;;;;;;;;;;4319970;33;20111;-64
2021/12/22 05:24:05;;;;;;;5.93;4.95;;;;;;;;;;4333562;33;20094;-65
2021/12/22 05:26:31;;;;;;;6.30;5.15;;;;;;;;;;4320097;33;20122;-65
2021/12/22 05:28:57;;;;;;;6.40;5.30;;;;;;;;;;4320126;33;20098;-66
2021/12/22 05:31:23;;;;;;;7.55;5.40;;;;;;;;;;4333556;33;20537;-65
2021/12/22 05:33:50;;;;;;;10.60;6.47;;;;;;;;;;4333592;33;20121;-64
2021/12/22 05:36:16;;;;;;;9.23;6.80;;;;;;;;;;4333464;33;20115;-67
2021/12/22 05:38:42;;;;;;;11.23;7.10;;;;;;;;;;4308014;33;20116;-67
2021/12/22 05:41:08;;;;;;;10.15;6.70;;;;;;;;;;4333485;33;20465;-68
2021/12/22 05:43:34;;;;;;;9.30;6.43;;;;;;;;;;4320106;33;20110;-67
2021/12/22 05:46:01;;;;;;;6.95;5.90;;;;;;;;;;4320213;33;20138;-66
2021/12/22 05:48:27;;;;;;;10.52;6.97;;;;;;;;;;4333405;33;20118;-67
2021/12/22 05:50:57;;;;;;;5.90;5.22;;;;;;;;;;4333275;33;20213;-66
2021/12/22 05:53:24;;;;;;;7.45;5.53;;;;;;;;;;4333217;33;20185;-67
2021/12/22 05:55:51;;;;;;;8.50;6.22;;;;;;;;;;4333439;33;20186;-67
2021/12/22 05:58:17;;;;;;;6.90;6.20;;;;;;;;;;4333339;33;20110;-68
2021/12/22 06:00:43;;;;;;;7.80;5.97;;;;;;;;;;4333328;33;20118;-68
2021/12/22 06:03:12;;;;;;;8.07;6.30;;;;;;;;;;4333442;33;20110;-68
2021/12/22 06:05:39;;;;;;;6.30;5.70;;;;;;;;;;4320105;33;20556;-68
2021/12/22 06:08:05;;;;;;;6.62;5.75;;;;;;;;;;4319773;33;20106;-69
2021/12/22 06:10:34;;;;;;;6.80;5.85;;;;;;;;;;4333229;33;20106;-68
2021/12/22 06:13:05;;;;;;;6.45;5.45;;;;;;;;;;4333110;33;20114;-68
2021/12/22 06:15:31;;;;;;;8.23;5.75;;;;;;;;;;4319447;33;20141;-68
2021/12/22 06:17:59;;;;;;;6.97;5.82;;;;;;;;;;4319312;33;20473;-68
2021/12/22 06:20:25;;;;;;;6.43;5.32;;;;;;;;;;4333232;33;20143;-68
2021/12/22 06:22:52;;;;;;;7.07;5.53;;;;;;;;;;4307777;33;20489;-68
2021/12/22 06:25:18;;;;;;;6.65;5.35;;;;;;;;;;4333382;33;20129;-68
2021/12/22 06:27:44;;;;;;;7.87;5.70;;;;;;;;;;4333099;33;20540;-68
2021/12/22 06:30:11;;;;;;;11.20;6.40;;;;;;;;;;4319509;33;20497;-67
2021/12/22 06:32:37;;;;;;;6.28;5.57;;;;;;;;;;4332903;33;20208;-70
2021/12/22 06:35:03;;;;;;;6.03;5.30;;;;;;;;;;4332955;33;20110;-68
2021/12/22 06:37:29;;;;;;;8.35;6.97;;;;;;;;;;4319780;33;20101;-68
2021/12/22 06:39:55;;;;;;;7.87;6.37;;;;;;;;;;4332960;33;20087;-64
2021/12/22 06:42:22;;;;;;;7.00;5.80;;;;;;;;;;4332995;33;20110;-66
2021/12/22 06:44:49;;;;;;;7.40;5.50;;;;;;;;;;4319726;33;20130;-64
2021/12/22 06:47:16;;;;;;;6.72;5.05;;;;;;;;;;4315660;33;20105;-64
2021/12/22 06:49:42;;;;;;;6.50;5.90;;;;;;;;;;4332959;33;20550;-65
2021/12/22 06:52:08;;;;;;;7.12;5.55;;;;;;;;;;4329382;33;20095;-65
2021/12/22 06:54:34;;;;;;;6.28;5.60;;;;;;;;;;4304611;33;20119;-64
2021/12/22 06:57:00;;;;;;;7.70;6.45;;;;;;;;;;4315385;33;20199;-65
2021/12/22 06:59:26;;;;;;;7.57;6.50;;;;;;;;;;4319292;33;20114;-65
2021/12/22 07:01:52;;;;;;;6.43;5.68;;;;;;;;;;4332624;33;20529;-66
2021/12/22 07:04:19;;;;;;;6.00;5.40;;;;;;;;;;4332792;33;20103;-74
2021/12/22 07:06:45;;;;;;;5.62;4.78;;;;;;;;;;4319047;33;20439;-64
2021/12/22 07:09:11;;;;;;;5.65;4.97;;;;;;;;;;4319036;33;20111;-65
2021/12/22 07:11:38;;;;;;;6.37;5.40;;;;;;;;;;4332778;33;20110;-64
2021/12/22 07:14:07;;;;;;;7.12;5.87;;;;;;;;;;4332591;33;20114;-66
2021/12/22 07:16:33;;;;;;;6.70;5.82;;;;;;;;;;4332834;33;20098;-65
2021/12/22 07:18:59;;;;;;;5.60;4.85;;;;;;;;;;4319264;33;20107;-65
2021/12/22 07:21:25;;;;;;;5.68;5.18;;;;;;;;;;4319061;33;20091;-67
2021/12/22 07:23:52;;;;;;;5.82;5.22;;;;;;;;;;4319192;33;20085;-67
2021/12/22 07:26:18;;;;;;;6.37;5.07;;;;;;;;;;4319256;33;20173;-67
2021/12/22 07:28:46;;;;;;;6.50;5.80;;;;;;;;;;4318629;33;20499;-66
2021/12/22 07:31:14;;;;;;;6.35;4.93;;;;;;;;;;4332765;33;20197;-65
2021/12/22 07:33:43;;;;;;;5.97;5.37;;;;;;;;;;4332463;33;20122;-67
2021/12/22 07:36:09;;;;;;;7.37;6.10;;;;;;;;;;4332034;33;20127;-66
2021/12/22 07:38:48;;;;;;;6.15;5.40;;;;;;;;;;4332248;33;20833;-63
2021/12/22 07:41:14;;;;;;;5.93;5.32;;;;;;;;;;4332480;33;20208;-63
2021/12/22 07:43:40;;;;;;;6.25;5.65;;;;;;;;;;4332493;33;20122;-63
2021/12/22 07:46:08;;;;;;;6.93;5.70;;;;;;;;;;4332558;33;20117;-63
2021/12/22 07:48:35;;;;;;;6.70;5.65;;;;;;;;;;4332479;33;20098;-62
2021/12/22 07:51:01;;;;;;;7.28;6.03;;;;;;;;;;4332380;33;20560;-64
2021/12/22 07:53:27;;;;;;;6.78;6.07;;;;;;;;;;4331235;33;20670;-62
2021/12/22 07:55:54;;;;;;;8.07;6.35;;;;;;;;;;4332099;33;20102;-63
2021/12/22 07:58:21;;;;;;;7.95;6.75;;;;;;;;;;4332397;33;20166;-63
2021/12/22 08:00:48;;;;;;;6.32;5.53;;;;;;;;;;4331793;33;20123;-62
2021/12/22 08:03:14;;;;;;;5.93;5.22;;;;;;;;;;4281732;33;20111;-63
2021/12/22 08:05:40;;;;;;;5.87;5.28;;;;;;;;;;4318621;33;20435;-63
2021/12/22 08:08:07;;;;;;;5.60;4.93;;;;;;;;;;4331960;33;20096;-62
2021/12/22 08:10:33;;;;;;;5.70;5.00;;;;;;;;;;4331165;33;20126;-63
2021/12/22 08:12:59;;;;;;;6.25;5.05;;;;;;;;;;4329991;33;20163;-63
2021/12/22 08:15:25;;;;;;;5.70;5.20;;;;;;;;;;4329906;33;20135;-63
2021/12/22 08:17:52;;;;;;;6.18;5.12;;;;;;;;;;4330175;33;20573;-63
2021/12/22 08:20:20;;;;;;;5.93;5.20;;;;;;;;;;4331958;33;20112;-63
2021/12/22 08:22:46;;;;;;;6.85;5.45;;;;;;;;;;4331650;33;20441;-63
2021/12/22 08:25:12;;;;;;;6.07;5.47;;;;;;;;;;4331968;33;20510;-63
2021/12/22 08:27:39;;;;;;;5.78;5.18;;;;;;;;;;4332034;33;20114;-62
2021/12/22 08:30:07;;;;;;;6.45;5.72;;;;;;;;;;4331921;33;20466;-63
2021/12/22 08:32:33;;;;;;;5.22;4.72;;;;;;;;;;4331839;33;20102;-63
2021/12/22 08:35:02;;;;;;;6.65;5.75;;;;;;;;;;4332079;33;20122;-62
2021/12/22 08:40:17;;;;;;;6.68;5.25;;;;;;;;;;4333097;33;20647;-62
2021/12/22 08:42:44;;;;;;;6.47;5.28;;;;;;;;;;4320711;33;20177;-62
2021/12/22 08:45:11;;;;;;;7.10;6.40;;;;;;;;;;4334061;33;20122;-62
2021/12/22 08:47:37;;;;;;;7.68;5.37;;;;;;;;;;4334167;33;20102;-62
2021/12/22 08:50:06;;;;;;;7.75;6.07;;;;;;;;;;4334138;33;20186;-62
2021/12/22 08:52:32;;;;;;;6.30;4.90;;;;;;;;;;4334064;33;20553;-63
2021/12/22 08:54:58;;;;;;;5.70;5.07;;;;;;;;;;4334139;33;20106;-63
2021/12/22 08:57:24;;;;;;;6.57;5.10;;;;;;;;;;4334066;33;20248;-64
2021/12/22 08:59:51;;;;;;;8.18;6.12;;;;;;;;;;4334092;33;20201;-63
2021/12/22 09:02:17;;;;;;;5.78;5.18;;;;;;;;;;4333964;33;20111;-63
2021/12/22 09:04:43;;;;;;;6.65;5.45;;;;;;;;;;4333921;33;20094;-62
2021/12/22 09:07:09;;;;;;;6.55;5.18;;;;;;;;;;4334046;33;20566;-63
2021/12/22 09:09:37;;;;;;;7.05;5.75;;;;;;;;;;4333971;33;20109;-62
2021/12/22 09:12:04;;;;;;;7.53;5.53;;;;;;;;;;4333854;33;20129;-62
2021/12/22 09:14:30;;;;;;;8.80;5.95;;;;;;;;;;4333799;33;20121;-62
2021/12/22 09:16:56;;;;;;;5.85;5.25;;;;;;;;;;4333935;33;20557;-61
2021/12/22 09:19:23;;;;;;;8.75;5.60;;;;;;;;;;4333713;33;20129;-63
2021/12/22 09:21:51;;;;;;;7.05;5.55;;;;;;;;;;4333956;33;20516;-62
2021/12/22 09:24:18;;;;;;;7.28;5.97;;;;;;;;;;4333933;33;20138;-62
2021/12/22 09:26:44;;;;;;;8.43;5.55;;;;;;;;;;4333874;33;20095;-62
2021/12/22 09:29:10;;;;;;;6.72;5.90;;;;;;;;;;4333728;33;20109;-62
2021/12/22 09:31:37;;;;;;;9.32;5.70;;;;;;;;;;4333706;33;20119;-60
2021/12/22 09:34:03;;;;;;;7.85;6.07;;;;;;;;;;4333616;33;20111;-59
2021/12/22 09:36:29;;;;;;;7.00;6.10;;;;;;;;;;4333901;33;20107;-64
2021/12/22 09:38:56;;;;;;;7.80;6.15;;;;;;;;;;4320235;33;20126;-64
2021/12/22 09:41:22;;;;;;;6.50;5.72;;;;;;;;;;4333993;33;20115;-63
2021/12/22 09:43:51;;;;;;;6.40;5.50;;;;;;;;;;4333600;33;20130;-64
2021/12/22 09:46:20;;;;;;;6.18;5.40;;;;;;;;;;4333629;33;20167;-64
2021/12/22 09:53:51;;;;;;;7.55;6.25;;;;;;;;;;4333575;33;20089;-61
2021/12/22 09:56:22;;;;;;;11.43;8.00;;;;;;;;;;4333635;33;20198;-62
2021/12/22 09:58:49;;;;;;;11.18;7.85;;;;;;;;;;4319957;33;20103;-64
2021/12/22 10:01:21;;;;;;;8.77;6.80;;;;;;;;;;4333364;33;20537;-63
2021/12/22 10:03:47;;;;;;;6.90;6.10;;;;;;;;;;4333475;33;20118;-64
2021/12/22 10:06:13;;;;;;;7.12;6.43;;;;;;;;;;4333584;33;20609;-64
2021/12/22 10:08:50;;;;;;;8.23;7.00;;;;;;;;;;4319703;33;20118;-63
2021/12/22 10:11:16;;;;;;;9.10;7.45;;;;;;;;;;4332074;33;20216;-63
2021/12/22 10:13:44;;;;;;;8.65;6.90;;;;;;;;;;4331790;33;20549;-64
2021/12/22 10:16:13;;;;;;;9.27;7.70;;;;;;;;;;4331705;33;20201;-64
2021/12/22 10:18:39;;;;;;;7.22;6.53;;;;;;;;;;4331699;33;20086;-62
2021/12/22 10:21:11;;;;;;;7.62;6.50;;;;;;;;;;4332160;33;20103;-62
2021/12/22 10:23:41;;;;;;;8.63;6.18;;;;;;;;;;4333089;33;20199;-62
2021/12/22 10:26:08;;;;;;;6.90;6.15;;;;;;;;;;4333198;33;20593;-62
2021/12/22 10:28:51;;;;;;;6.47;5.78;;;;;;;;;;4333167;33;20121;-62
2021/12/22 10:31:18;;;;;;;7.50;5.78;;;;;;;;;;4333040;33;20122;-63
2021/12/22 10:33:45;;;;;;;6.47;5.68;;;;;;;;;;4333015;33;20481;-63
2021/12/22 10:36:21;;;;;;;6.22;5.57;;;;;;;;;;4333061;33;20131;-63
2021/12/22 10:39:00;;;;;;;6.80;5.43;;;;;;;;;;4332891;33;20122;-63
2021/12/22 10:41:30;;;;;;;8.77;6.30;;;;;;;;;;4319316;33;20467;-63
2021/12/22 10:43:57;;;;;;;7.15;5.87;;;;;;;;;;4332797;33;20125;-63
2021/12/22 10:46:28;;;;;;;6.25;5.55;;;;;;;;;;4332897;33;20200;-63
2021/12/22 10:49:27;;;;;;;6.65;5.80;;;;;;;;;;4332875;33;20166;-63
2021/12/22 10:52:01;;;;;;;7.12;5.53;;;;;;;;;;4275318;33;20223;-63
2021/12/22 10:54:35;;;;;;;8.52;5.60;;;;;;;;;;4332797;33;20137;-62
2021/12/22 10:57:04;;;;;;;7.22;6.00;;;;;;;;;;4332785;33;20102;-63
2021/12/22 10:59:47;;;;;;;7.93;6.85;;;;;;;;;;4319092;33;20205;-62
2021/12/22 11:02:27;;;;;;;9.13;6.95;;;;;;;;;;4332287;33;20509;-62
2021/12/22 11:04:53;;;;;;;7.97;6.47;;;;;;;;;;4332597;33;20126;-63
2021/12/22 11:07:27;;;;;;;6.60;5.57;;;;;;;;;;4319051;33;20122;-62
2021/12/22 11:09:54;;;;;;;6.25;5.32;;;;;;;;;;4314495;33;20113;-64
2021/12/22 11:12:36;;;;;;;5.82;4.87;;;;;;;;;;4329475;33;20470;-64
2021/12/22 11:15:04;;;;;;;5.03;4.53;;;;;;;;;;4331951;33;20204;-64
2021/12/22 11:17:31;;;;;;;5.35;4.85;;;;;;;;;;4331567;33;20103;-64
2021/12/22 11:20:05;;;;;;;6.57;5.90;;;;;;;;;;4331975;33;20208;-64
2021/12/22 11:22:46;;;;;;;6.95;6.03;;;;;;;;;;4332655;33;20099;-64
2021/12/22 11:25:13;;;;;;;7.72;6.00;;;;;;;;;;4332590;33;20226;-65
2021/12/22 11:27:39;;;;;;;8.55;7.12;;;;;;;;;;4332535;33;20114;-64
2021/12/22 11:30:06;;;;;;;9.40;6.12;;;;;;;;;;4332423;33;20102;-65
2021/12/22 11:32:33;;;;;;;7.20;6.45;;;;;;;;;;4332429;33;20216;-63
2021/12/22 11:35:01;;;;;;;7.43;6.40;;;;;;;;;;4332241;33;20544;-64
2021/12/22 11:37:28;;;;;;;6.57;5.65;;;;;;;;;;4332367;33;20182;-64
2021/12/22 11:39:55;;;;;;;6.90;5.65;;;;;;;;;;4332303;33;20192;-63
2021/12/22 11:42:25;;;;;;;6.65;5.25;;;;;;;;;;4332341;33;20095;-64
2021/12/22 11:44:59;;;;;;;6.22;5.07;;;;;;;;;;4332408;33;20119;-64
2021/12/22 11:47:25;;;;;;;7.25;5.25;;;;;;;;;;4318728;33;20098;-64
2021/12/22 11:50:00;;;;;;;6.20;5.60;;;;;;;;;;4332536;33;20111;-64
2021/12/22 11:53:03;;;;;;;8.30;6.18;;;;;;;;;;4306677;33;20119;-64
2021/12/22 11:55:49;;;;;;;5.85;5.20;;;;;;;;;;4271687;33;20084;-64
2021/12/22 11:58:15;;;;;;;;;;;;;;;;;;4315259;33;20091;-64
2021/12/22 12:00:43;;;;;;;7.07;5.62;;;;;;;;;;4332124;33;19986;-64
2021/12/22 12:03:18;;;;;;;7.15;5.47;;;;;;;;;;4332055;33;20110;-64
2021/12/22 12:06:09;;;;;;;6.07;5.37;;;;;;;;;;4332442;33;20094;-64
2021/12/22 12:08:39;;;;;;;8.13;5.65;;;;;;;;;;4332016;33;20099;-65
2021/12/22 12:11:07;;;;;;;5.47;5.00;;;;;;;;;;4332167;33;20197;-64
2021/12/22 12:14:03;;;;;;;6.65;5.40;;;;;;;;;;4331870;33;20129;-65
2021/12/22 12:22:34;;;;;;;7.53;6.00;;;;;;;;;;4334137;33;20142;-65
2021/12/22 12:25:09;;;;;;;8.05;6.00;;;;;;;;;;4334100;33;20684;-65
2021/12/22 12:27:46;;;;;;;7.80;6.00;;;;;;;;;;4320519;33;20094;-64
2021/12/22 12:30:40;;;;;;;8.82;6.15;;;;;;;;;;4334012;33;20697;-65
2021/12/22 12:33:07;;;;;;;9.70;6.37;;;;;;;;;;4334054;33;20102;-65
2021/12/22 12:35:38;;;;;;;6.32;5.65;;;;;;;;;;4333930;33;20126;-64
2021/12/22 12:38:12;;;;;;;7.68;5.78;;;;;;;;;;4334039;33;20118;-66
2021/12/22 12:41:05;;;;;;;6.90;5.87;;;;;;;;;;4333990;33;20533;-67
2021/12/22 12:43:40;;;;;;;7.40;5.78;;;;;;;;;;4334339;33;20102;-68
2021/12/22 12:46:19;;;;;;;9.68;5.75;;;;;;;;;;4332100;33;20107;-68
2021/12/22 12:48:55;;;;;;;6.78;4.97;;;;;;;;;;4331740;33;20197;-68
2021/12/22 12:51:30;;;;;;;6.43;5.53;;;;;;;;;;4318465;33;20188;-69
2021/12/22 12:53:58;;;;;;;8.32;6.37;;;;;;;;;;4331684;33;20114;-68
2021/12/22 12:56:31;;;;;;;7.47;5.95;;;;;;;;;;4306383;33;20467;-68
2021/12/22 12:59:06;;;;;;;9.25;7.65;;;;;;;;;;4331920;33;20518;-68
2021/12/22 13:01:49;;;;;;;11.82;7.37;;;;;;;;;;4332095;33;20114;-68
2021/12/22 13:04:37;;;;;;;10.27;7.25;;;;;;;;;;4332684;33;20123;-67
2021/12/22 13:07:06;;;;;;;7.03;6.10;;;;;;;;;;4332823;33;20107;-67
2021/12/22 13:09:33;;;;;;;7.10;6.18;;;;;;;;;;4319980;33;20094;-68
2021/12/22 13:17:24;;;;;;;7.97;6.32;;;;;;;;;;4322571;33;20117;-68
2021/12/22 13:19:54;;;;;;;6.18;4.90;;;;;;;;;;4333469;33;20091;-68
2021/12/22 13:22:29;;;;;;;9.70;5.95;;;;;;;;;;4333645;33;20201;-68
2021/12/22 13:25:17;;;;;;;6.00;5.40;;;;;;;;;;4333402;33;20110;-66
2021/12/22 13:27:50;;;;;;;7.22;4.82;;;;;;;;;;4320517;33;20109;-66
2021/12/22 13:30:23;;;;;;;5.78;5.20;;;;;;;;;;4333624;33;20118;-67
2021/12/22 13:33:02;;;;;;;7.62;5.00;;;;;;;;;;4333590;33;20118;-67
2021/12/22 13:35:44;;;;;;;5.35;4.75;;;;;;;;;;4333671;33;20206;-67
2021/12/22 13:38:20;;;;;;;8.00;5.65;;;;;;;;;;4333661;33;20110;-66
2021/12/22 13:40:47;;;;;;;;;;;;;;;;;;4333894;33;20177;-67
2021/12/22 13:43:33;;;;;;;7.37;6.68;;;;;;;;;;4333570;33;19997;-67
2021/12/22 13:46:10;;;;;;;8.10;7.30;;;;;;;;;;4333435;33;20188;-67
2021/12/22 13:48:43;;;;;;;8.63;7.20;;;;;;;;;;4333057;33;20110;-66
2021/12/22 13:51:11;;;;;;;6.95;6.25;;;;;;;;;;4320231;33;20213;-68
2021/12/22 13:53:39;;;;;;;7.60;5.90;;;;;;;;;;4333358;33;20118;-65
2021/12/22 13:56:06;;;;;;;8.13;7.20;;;;;;;;;;4307531;33;20121;-67
2021/12/22 13:58:58;;;;;;;8.13;7.05;;;;;;;;;;4319804;33;20095;-65
2021/12/22 14:01:46;;;;;;;8.70;7.65;;;;;;;;;;4333370;33;20796;-66
2021/12/22 14:04:17;;;;;;;9.75;8.27;;;;;;;;;;4333222;33;20106;-67
2021/12/22 14:06:51;;;;;;;9.35;8.23;;;;;;;;;;4319981;33;20182;-66
2021/12/22 14:09:23;;;;;;;9.52;8.20;;;;;;;;;;4333392;33;20203;-66
2021/12/22 14:12:14;;;;;;;10.15;8.63;;;;;;;;;;4319989;33;20439;-66
2021/12/22 14:14:43;;;;;;;12.52;9.70;;;;;;;;;;4320079;33;20094;-68
2021/12/22 14:17:14;;;;;;;13.15;10.40;;;;;;;;;;4320009;33;20435;-66
2021/12/22 14:19:49;;;;;;;12.27;9.52;;;;;;;;;;4328759;33;20107;-66
2021/12/22 14:22:20;;;;;;;9.80;8.53;;;;;;;;;;4319528;33;20092;-69
2021/12/22 14:25:06;;;;;;;9.30;7.82;;;;;;;;;;4316542;33;20195;-67
2021/12/22 14:27:44;;;;;;;10.90;8.00;;;;;;;;;;4318300;33;20557;-66
2021/12/22 14:30:24;;;;;;;8.68;7.78;;;;;;;;;;4324945;33;20106;-68
2021/12/22 14:33:13;;;;;;;9.32;8.43;;;;;;;;;;4318973;33;20146;-66
2021/12/22 14:35:41;;;;;;;11.80;9.25;;;;;;;;;;4331183;33;20122;-66
2021/12/22 14:38:15;;;;;;;11.80;9.13;;;;;;;;;;4332368;33;20514;-66
2021/12/22 14:41:19;;;;;;;11.68;10.35;;;;;;;;;;4308396;33;20125;-66
2021/12/22 14:43:47;;;;;;;9.43;7.85;;;;;;;;;;4304122;33;20127;-65
2021/12/22 14:46:32;;;;;;;8.25;7.03;;;;;;;;;;4331277;33;20242;-66
2021/12/22 14:48:59;;;;;;;8.45;7.55;;;;;;;;;;4319317;33;20576;-68
2021/12/22 14:51:25;;;;;;;8.68;7.55;;;;;;;;;;4316669;33;20086;-67
2021/12/22 14:54:02;;;;;;;9.98;7.65;;;;;;;;;;4304869;33;20786;-70
2021/12/22 14:56:42;;;;;;;10.02;7.37;;;;;;;;;;4304078;33;20094;-73
2021/12/22 14:59:09;;;;;;;9.45;8.45;;;;;;;;;;4315465;33;20132;-64
2021/12/22 15:01:35;;;;;;;10.35;8.45;;;;;;;;;;4319089;33;20209;-64
2021/12/22 15:04:01;;;;;;;9.38;8.40;;;;;;;;;;4319884;33;20103;-64
2021/12/22 15:06:29;;;;;;;11.93;9.80;;;;;;;;;;4332667;33;20083;-65
2021/12/22 15:08:55;;;;;;;11.82;10.27;;;;;;;;;;4332359;33;20130;-64
2021/12/22 15:11:22;;;;;;;11.82;10.27;;;;;;;;;;4332312;33;20080;-68
2021/12/22 15:13:50;;;;;;;11.18;9.63;;;;;;;;;;4308772;33;20513;-68
2021/12/22 15:16:18;;;;;;;10.57;8.98;;;;;;;;;;4330127;33;20099;-68
2021/12/22 15:18:44;;;;;;;11.73;8.73;;;;;;;;;;4318789;33;20110;-68
2021/12/22 15:21:12;;;;;;;10.73;8.93;;;;;;;;;;4318195;33;20174;-65
2021/12/22 15:23:38;;;;;;;10.82;8.95;;;;;;;;;;4332291;33;20111;-65
2021/12/22 15:26:04;;;;;;;9.38;8.07;;;;;;;;;;4318301;33;20131;-61
2021/12/22 15:28:31;;;;;;;9.18;7.18;;;;;;;;;;4318954;33;20513;-63
2021/12/22 15:30:58;;;;;;;10.85;7.95;;;;;;;;;;4321435;33;20107;-64
2021/12/22 15:33:26;;;;;;;11.12;8.50;;;;;;;;;;4317343;33;20258;-63
2021/12/22 15:35:53;;;;;;;10.20;8.85;;;;;;;;;;4327941;33;20114;-63
2021/12/22 15:38:20;;;;;;;9.82;7.97;;;;;;;;;;4306820;33;20088;-63
2021/12/22 15:40:47;;;;;;;10.57;8.85;;;;;;;;;;4331615;33;20103;-63
2021/12/22 15:43:14;;;;;;;11.77;9.02;;;;;;;;;;4332298;33;20200;-64
2021/12/22 15:45:40;;;;;;;11.82;10.23;;;;;;;;;;4318078;33;20117;-64
2021/12/22 15:48:06;;;;;;;12.75;10.00;;;;;;;;;;4330064;33;20095;-63
2021/12/22 15:50:34;;;;;;;12.75;10.55;;;;;;;;;;4334062;33;20521;-63
2021/12/22 15:53:40;;;;;;;10.68;9.15;;;;;;;;;;4313484;33;20079;-64